createdAt,value
2019-01-30T00:00:33.626Z,98417.38
2019-01-30T00:03:13.933Z,98417.70
2019-01-30T00:05:45.930Z,98409.09
2019-01-30T00:08:18.600Z,98412.44
2019-01-30T00:10:50.269Z,98407.22
2019-01-30T00:13:22.099Z,98400.63
2019-01-30T00:15:56.324Z,98401.88
2019-01-30T00:18:27.384Z,98405.30
2019-01-30T00:20:59.076Z,98395.33
2019-01-30T00:23:31.870Z,98390.11
2019-01-30T00:26:03.543Z,98379.77
2019-01-30T00:28:35.146Z,98373.35
2019-01-30T00:31:07.025Z,98368.63
2019-01-30T00:33:38.644Z,98364.83
2019-01-30T00:36:11.569Z,98359.31
2019-01-30T00:38:43.958Z,98356.80
2019-01-30T00:41:15.584Z,98348.57
2019-01-30T00:43:47.232Z,98333.91
2019-01-30T00:46:18.929Z,98334.44
2019-01-30T00:48:51.742Z,98334.09
2019-01-30T00:51:25.703Z,98327.31
2019-01-30T00:53:59.331Z,98313.19
2019-01-30T00:56:33.460Z,98300.13
2019-01-30T00:59:07.544Z,98315.51
2019-01-30T01:01:40.255Z,98312.21
2019-01-30T01:04:13.415Z,98316.63
2019-01-30T01:06:45.065Z,98318.50
2019-01-30T01:09:17.417Z,98308.79
2019-01-30T01:11:49.040Z,98299.52
2019-01-30T01:14:20.770Z,98299.13
2019-01-30T01:16:52.346Z,98293.19
2019-01-30T01:19:24.064Z,98289.37
2019-01-30T01:21:57.437Z,98293.69
2019-01-30T01:24:29.373Z,98291.50
2019-01-30T01:27:01.268Z,98297.16
2019-01-30T01:29:33.189Z,98291.11
2019-01-30T01:32:04.838Z,98284.16
2019-01-30T01:34:36.643Z,98286.29
2019-01-30T01:37:08.213Z,98277.25
2019-01-30T01:39:40.411Z,98274.27
2019-01-30T01:42:12.927Z,98266.83
2019-01-30T01:44:44.734Z,98267.12
2019-01-30T01:47:16.486Z,98256.17
2019-01-30T01:49:48.103Z,98253.84
2019-01-30T01:52:20.802Z,98238.34
2019-01-30T01:54:53.789Z,98233.88
2019-01-30T01:57:26.561Z,98226.48
2019-01-30T01:59:58.218Z,98219.94
2019-01-30T02:02:29.848Z,98204.96
2019-01-30T02:05:01.480Z,98197.39
2019-01-30T02:07:33.484Z,98196.60
2019-01-30T02:10:07.395Z,98201.38
2019-01-30T02:12:41.072Z,98195.31
2019-01-30T02:15:15.824Z,98182.39
2019-01-30T02:17:47.466Z,98181.05
2019-01-30T02:20:25.579Z,98172.37
2019-01-30T02:22:58.700Z,98166.75
2019-01-30T02:25:30.479Z,98166.39
2019-01-30T02:28:03.883Z,98170.17
2019-01-30T02:30:46.616Z,98171.02
2019-01-30T02:33:09.623Z,98161.92
2019-01-30T02:35:41.470Z,98157.02
2019-01-30T02:38:13.429Z,98159.30
2019-01-30T02:40:45.104Z,98155.03
2019-01-30T02:43:17.452Z,98146.49
2019-01-30T02:45:49.312Z,98141.52
2019-01-30T02:48:21.027Z,98138.73
2019-01-30T02:50:52.682Z,98133.05
2019-01-30T02:53:24.279Z,98137.12
2019-01-30T02:55:56.004Z,98136.53
2019-01-30T02:58:28.061Z,98127.81
2019-01-30T03:00:59.758Z,98114.83
2019-01-30T03:03:31.600Z,98112.03
2019-01-30T03:06:04.546Z,98110.30
2019-01-30T03:08:36.255Z,98116.88
2019-01-30T03:11:07.795Z,98110.10
2019-01-30T03:13:40.577Z,98115.34
2019-01-30T03:16:12.252Z,98114.49
2019-01-30T03:18:43.840Z,98112.80
2019-01-30T03:21:16.451Z,98113.70
2019-01-30T03:23:48.071Z,98113.70
2019-01-30T03:26:21.243Z,98107.58
2019-01-30T03:28:53.587Z,98106.73
2019-01-30T03:31:25.139Z,98111.31
2019-01-30T03:33:56.774Z,98103.44
2019-01-30T03:36:28.431Z,98104.64
2019-01-30T03:39:00.016Z,98103.34
2019-01-30T03:41:31.660Z,98097.72
2019-01-30T03:44:03.916Z,98103.17
2019-01-30T03:46:35.836Z,98103.92
2019-01-30T03:49:07.416Z,98111.23
2019-01-30T03:51:39.340Z,98104.38
2019-01-30T03:54:11.292Z,98095.26
2019-01-30T03:56:42.931Z,98099.59
2019-01-30T03:59:14.644Z,98107.30
2019-01-30T04:01:46.621Z,98103.41
2019-01-30T04:04:18.284Z,98099.59
2019-01-30T04:06:49.904Z,98098.75
2019-01-30T04:09:21.480Z,98068.48
2019-01-30T04:11:53.150Z,98072.67
2019-01-30T04:14:24.727Z,98081.21
2019-01-30T04:16:56.864Z,98078.30
2019-01-30T04:19:28.847Z,98073.59
2019-01-30T04:22:01.111Z,98072.55
2019-01-30T04:24:32.746Z,98079.31
2019-01-30T04:27:04.527Z,98090.45
2019-01-30T04:29:36.133Z,98080.40
2019-01-30T04:32:12.807Z,98076.84
2019-01-30T04:34:44.514Z,98074.50
2019-01-30T04:37:19.115Z,98071.40
2019-01-30T04:39:53.197Z,98064.48
2019-01-30T04:42:27.545Z,98056.78
2019-01-30T04:45:01.044Z,98052.95
2019-01-30T04:47:35.223Z,98048.23
2019-01-30T04:50:14.058Z,98046.19
2019-01-30T04:52:49.049Z,98042.16
2019-01-30T04:55:26.280Z,98027.53
2019-01-30T04:57:58.272Z,98026.78
2019-01-30T05:00:30.107Z,98035.05
2019-01-30T05:03:01.719Z,98027.84
2019-01-30T05:05:37.196Z,98017.48
2019-01-30T05:08:09.000Z,98015.71
2019-01-30T05:10:40.622Z,98011.77
2019-01-30T05:13:12.237Z,98010.25
2019-01-30T05:15:44.629Z,98005.02
2019-01-30T05:18:16.295Z,98004.02
2019-01-30T05:20:48.325Z,98000.98
2019-01-30T05:23:19.962Z,97996.64
2019-01-30T05:25:52.263Z,97995.29
2019-01-30T05:28:23.976Z,97997.42
2019-01-30T05:30:55.634Z,97995.62
2019-01-30T05:33:27.583Z,97992.03
2019-01-30T05:35:59.696Z,97989.77
2019-01-30T05:38:31.297Z,97987.08
2019-01-30T05:41:02.930Z,97976.59
2019-01-30T05:43:36.208Z,97979.09
2019-01-30T05:46:07.877Z,97982.91
2019-01-30T05:48:39.535Z,97973.02
2019-01-30T05:51:11.501Z,97968.16
2019-01-30T05:53:43.084Z,97974.69
2019-01-30T05:56:14.941Z,97969.91
2019-01-30T05:58:46.650Z,97959.39
2019-01-30T06:01:18.372Z,97966.92
2019-01-30T06:03:49.987Z,97957.73
2019-01-30T06:06:23.860Z,97959.42
2019-01-30T06:08:55.736Z,97960.72
2019-01-30T06:11:27.613Z,97956.05
2019-01-30T06:13:59.235Z,97956.96
2019-01-30T06:16:30.983Z,97960.45
2019-01-30T06:19:02.583Z,97967.93
2019-01-30T06:21:35.541Z,97971.03
2019-01-30T06:24:07.121Z,97970.58
2019-01-30T06:26:38.803Z,97973.56
2019-01-30T06:29:10.467Z,97976.93
2019-01-30T06:31:42.216Z,97980.13
2019-01-30T06:34:13.909Z,97973.50
2019-01-30T06:36:45.581Z,97965.73
2019-01-30T06:39:18.239Z,97968.64
2019-01-30T06:41:49.851Z,97964.27
2019-01-30T06:44:22.200Z,97954.59
2019-01-30T06:46:53.872Z,97961.23
2019-01-30T06:49:25.495Z,97945.02
2019-01-30T06:51:57.221Z,97949.35
2019-01-30T06:54:29.381Z,97961.13
2019-01-30T06:57:01.102Z,97966.09
2019-01-30T06:59:32.714Z,97964.86
2019-01-30T07:02:04.551Z,97964.63
2019-01-30T07:04:37.245Z,97956.70
2019-01-30T07:07:09.223Z,97963.72
2019-01-30T07:09:41.315Z,97968.89
2019-01-30T07:12:12.978Z,97976.20
2019-01-30T07:14:44.832Z,97977.50
2019-01-30T07:17:17.757Z,97969.80
2019-01-30T07:19:49.710Z,97957.77
2019-01-30T07:22:21.705Z,97969.86
2019-01-30T07:24:53.808Z,97973.35
2019-01-30T07:27:25.439Z,97979.31
2019-01-30T07:29:57.114Z,97989.83
2019-01-30T07:32:28.721Z,97981.68
2019-01-30T07:35:00.315Z,97985.27
2019-01-30T07:37:32.265Z,97984.59
2019-01-30T07:40:04.949Z,97986.96
2019-01-30T07:42:38.135Z,97990.78
2019-01-30T07:45:12.423Z,97990.16
2019-01-30T07:47:44.735Z,97994.22
2019-01-30T07:50:16.781Z,97999.48
2019-01-30T07:52:48.990Z,98007.25
2019-01-30T07:55:21.164Z,98014.28
2019-01-30T07:57:56.629Z,98014.83
2019-01-30T08:00:32.199Z,98020.55
2019-01-30T08:03:03.916Z,98019.34
2019-01-30T08:05:35.602Z,98026.04
2019-01-30T08:08:08.578Z,98021.39
2019-01-30T08:10:40.606Z,98031.46
2019-01-30T08:13:14.657Z,98026.42
2019-01-30T08:15:47.779Z,98030.47
2019-01-30T08:18:20.957Z,98038.01
2019-01-30T08:20:54.089Z,98041.27
2019-01-30T08:23:26.459Z,98036.41
2019-01-30T08:25:58.365Z,98028.55
2019-01-30T08:28:30.505Z,98034.58
2019-01-30T08:31:02.526Z,98035.33
2019-01-30T08:33:34.343Z,98045.17
2019-01-30T08:36:07.176Z,98039.81
2019-01-30T08:38:39.280Z,98039.81
2019-01-30T08:41:11.117Z,98044.02
2019-01-30T08:43:43.380Z,98051.17
2019-01-30T08:46:15.055Z,98053.08
2019-01-30T08:48:46.838Z,98047.36
2019-01-30T08:51:18.508Z,98050.91
2019-01-30T08:53:51.304Z,98050.91
2019-01-30T08:56:23.124Z,98054.38
2019-01-30T08:58:56.275Z,98049.71
2019-01-30T09:01:30.019Z,98042.69
2019-01-30T09:04:01.683Z,98047.64
2019-01-30T09:06:33.366Z,98034.48
2019-01-30T09:09:08.643Z,98042.66
2019-01-30T09:11:40.291Z,98045.38
2019-01-30T09:14:13.388Z,98047.73
2019-01-30T09:16:45.316Z,98048.31
2019-01-30T09:19:17.015Z,98054.48
2019-01-30T09:21:49.908Z,98057.59
2019-01-30T09:24:23.496Z,98052.14
2019-01-30T09:26:55.310Z,98049.29
2019-01-30T09:29:27.783Z,98051.25
2019-01-30T09:31:59.428Z,98050.72
2019-01-30T09:34:31.284Z,98052.98
2019-01-30T09:37:04.428Z,98059.98
2019-01-30T09:39:37.666Z,98062.40
2019-01-30T09:42:09.851Z,98066.11
2019-01-30T09:44:42.325Z,98066.88
2019-01-30T09:47:14.192Z,98059.47
2019-01-30T09:49:46.050Z,98067.99
2019-01-30T09:52:26.664Z,98061.22
2019-01-30T09:54:52.646Z,98068.56
2019-01-30T09:57:25.595Z,98072.08
2019-01-30T09:59:57.526Z,98071.31
2019-01-30T10:02:29.766Z,98083.64
2019-01-30T10:05:01.730Z,98081.89
2019-01-30T10:07:33.555Z,98087.74
2019-01-30T10:10:07.571Z,98086.42
2019-01-30T10:12:39.278Z,98080.77
2019-01-30T10:15:12.694Z,98086.02
2019-01-30T10:17:44.930Z,98082.39
2019-01-30T10:20:21.010Z,98088.73
2019-01-30T10:22:53.859Z,98090.30
2019-01-30T10:25:27.005Z,98089.51
2019-01-30T10:27:58.740Z,98096.13
2019-01-30T10:30:33.472Z,98090.20
2019-01-30T10:33:06.234Z,98089.02
2019-01-30T10:35:37.856Z,98100.53
2019-01-30T10:38:09.556Z,98099.53
2019-01-30T10:40:41.335Z,98095.09
2019-01-30T10:43:13.233Z,98095.73
2019-01-30T10:45:44.898Z,98091.27
2019-01-30T10:48:17.201Z,98100.75
2019-01-30T10:50:48.809Z,98103.73
2019-01-30T10:53:20.903Z,98105.69
2019-01-30T10:55:52.673Z,98101.55
2019-01-30T10:58:24.336Z,98115.62
2019-01-30T11:00:55.969Z,98116.34
2019-01-30T11:03:28.335Z,98108.27
2019-01-30T11:06:00.967Z,98108.03
2019-01-30T11:08:34.495Z,98098.99
2019-01-30T11:11:07.985Z,98109.80
2019-01-30T11:13:39.452Z,98100.33
2019-01-30T11:16:11.322Z,98105.55
2019-01-30T11:18:44.111Z,98100.22
2019-01-30T11:21:15.748Z,98097.62
2019-01-30T11:23:48.136Z,98109.55
2019-01-30T11:26:19.752Z,98098.84
2019-01-30T11:28:51.645Z,98097.62
2019-01-30T11:31:23.324Z,98105.70
2019-01-30T11:33:55.631Z,98108.97
2019-01-30T11:36:27.267Z,98110.16
2019-01-30T11:38:58.931Z,98103.01
2019-01-30T11:41:30.629Z,98115.56
2019-01-30T11:44:02.405Z,98123.09
2019-01-30T11:46:34.001Z,98115.85
2019-01-30T11:49:06.639Z,98105.55
2019-01-30T11:51:38.425Z,98125.91
2019-01-30T11:54:10.053Z,98120.22
2019-01-30T11:56:41.769Z,98131.64
2019-01-30T11:59:13.453Z,98145.27
2019-01-30T12:01:45.098Z,98143.86
2019-01-30T12:04:19.474Z,98141.17
2019-01-30T12:06:51.708Z,98134.34
2019-01-30T12:09:23.400Z,98145.20
2019-01-30T12:11:55.056Z,98150.98
2019-01-30T12:14:26.790Z,98150.98
2019-01-30T12:16:58.456Z,98157.56
2019-01-30T12:19:30.055Z,98164.14
2019-01-30T12:22:02.409Z,98155.50
2019-01-30T12:24:35.842Z,98175.47
2019-01-30T12:27:07.963Z,98170.84
2019-01-30T12:29:41.182Z,98181.02
2019-01-30T12:32:12.957Z,98185.76
2019-01-30T12:34:44.733Z,98187.63
2019-01-30T12:37:16.994Z,98201.94
2019-01-30T12:39:48.651Z,98205.66
2019-01-30T12:42:20.351Z,98214.84
2019-01-30T12:44:52.812Z,98240.27
2019-01-30T12:47:24.462Z,98221.93
2019-01-30T12:49:56.093Z,98231.47
2019-01-30T12:52:28.849Z,98234.13
2019-01-30T12:55:03.897Z,98245.70
2019-01-30T12:57:36.623Z,98234.91
2019-01-30T13:00:12.568Z,98235.17
2019-01-30T13:02:44.423Z,98243.56
2019-01-30T13:05:16.755Z,98242.63
2019-01-30T13:07:49.134Z,98242.14
2019-01-30T13:10:20.769Z,98248.42
2019-01-30T13:12:52.493Z,98242.13
2019-01-30T13:15:26.282Z,98241.41
2019-01-30T13:17:58.298Z,98243.84
2019-01-30T13:20:29.982Z,98241.55
2019-01-30T13:23:03.051Z,98247.87
2019-01-30T13:25:35.904Z,98244.27
2019-01-30T13:28:07.912Z,98250.84
2019-01-30T13:30:43.587Z,98253.98
2019-01-30T13:33:14.994Z,98255.08
2019-01-30T13:35:46.632Z,98269.10
2019-01-30T13:38:19.080Z,98256.09
2019-01-30T13:40:50.969Z,98268.72
2019-01-30T13:43:23.557Z,98269.70
2019-01-30T13:46:05.232Z,98276.31
2019-01-30T13:48:31.527Z,98267.35
2019-01-30T13:51:03.011Z,98277.09
2019-01-30T13:53:37.169Z,98281.44
2019-01-30T13:56:10.221Z,98279.52
2019-01-30T13:58:42.731Z,98292.83
2019-01-30T14:01:17.674Z,98294.41
2019-01-30T14:03:48.024Z,98302.45
2019-01-30T14:06:19.648Z,98310.04
2019-01-30T14:08:51.997Z,98305.02
2019-01-30T14:11:23.729Z,98313.27
2019-01-30T14:13:55.667Z,98314.19
2019-01-30T14:16:28.834Z,98330.69
2019-01-30T14:19:01.317Z,98336.13
2019-01-30T14:21:33.061Z,98336.20
2019-01-30T14:24:17.596Z,98344.63
2019-01-30T14:26:49.215Z,98347.75
2019-01-30T14:29:20.927Z,98353.58
2019-01-30T14:31:52.973Z,98354.66
2019-01-30T14:34:24.594Z,98353.49
2019-01-30T14:36:56.205Z,98368.87
2019-01-30T14:39:27.937Z,98369.63
2019-01-30T14:42:00.147Z,98375.05
2019-01-30T14:44:31.992Z,98374.90
2019-01-30T14:47:03.613Z,98387.59
2019-01-30T14:49:35.352Z,98381.92
2019-01-30T14:52:07.005Z,98399.58
2019-01-30T14:54:38.625Z,98389.61
2019-01-30T14:57:10.891Z,98400.61
2019-01-30T14:59:42.565Z,98397.23
2019-01-30T15:02:14.214Z,98405.64
2019-01-30T15:04:45.868Z,98413.95
2019-01-30T15:07:28.139Z,98422.41
2019-01-30T15:09:50.886Z,98428.60
2019-01-30T15:12:23.384Z,98431.93
2019-01-30T15:14:55.141Z,98428.41
2019-01-30T15:17:27.017Z,98435.56
2019-01-30T15:19:58.736Z,98449.00
2019-01-30T15:22:30.896Z,98441.27
2019-01-30T15:25:03.457Z,98448.81
2019-01-30T15:27:36.089Z,98453.73
2019-01-30T15:30:11.458Z,98457.54
2019-01-30T15:32:43.153Z,98459.16
2019-01-30T15:35:15.113Z,98450.50
2019-01-30T15:37:46.825Z,98464.13
2019-01-30T15:40:21.763Z,98462.83
2019-01-30T15:42:53.557Z,98478.39
2019-01-30T15:45:26.326Z,98487.47
2019-01-30T15:47:58.029Z,98482.13
2019-01-30T15:50:32.017Z,98488.95
2019-01-30T15:53:06.809Z,98493.35
2019-01-30T15:55:38.566Z,98506.13
2019-01-30T15:58:12.381Z,98503.83
2019-01-30T16:01:09.973Z,98505.83
2019-01-30T16:03:42.926Z,98503.09
2019-01-30T16:06:14.634Z,98522.80
2019-01-30T16:08:46.369Z,98531.67
2019-01-30T16:11:18.031Z,98530.42
2019-01-30T16:13:49.750Z,98535.16
2019-01-30T16:16:21.410Z,98544.39
2019-01-30T16:18:53.169Z,98537.20
2019-01-30T16:21:24.840Z,98570.64
2019-01-30T16:23:57.344Z,98549.56
2019-01-30T16:26:29.182Z,98563.90
2019-01-30T16:29:00.888Z,98574.27
2019-01-30T16:31:32.577Z,98577.70
2019-01-30T16:34:04.301Z,98574.27
2019-01-30T16:36:37.208Z,98578.46
2019-01-30T16:39:10.786Z,98580.20
2019-01-30T16:41:47.274Z,98583.70
2019-01-30T16:44:19.283Z,98584.23
2019-01-30T16:46:51.165Z,98585.63
2019-01-30T16:49:23.320Z,98590.45
2019-01-30T16:51:55.445Z,98595.18
2019-01-30T16:54:27.173Z,98605.86
2019-01-30T16:56:58.807Z,98601.52
2019-01-30T16:59:30.471Z,98610.98
2019-01-30T17:02:02.163Z,98610.09
2019-01-30T17:04:33.834Z,98617.33
2019-01-30T17:07:05.767Z,98624.61
2019-01-30T17:09:37.450Z,98628.41
2019-01-30T17:12:09.223Z,98634.39
2019-01-30T17:14:40.845Z,98635.19
2019-01-30T17:17:12.549Z,98643.80
2019-01-30T17:19:44.291Z,98636.93
2019-01-30T17:22:16.077Z,98643.52
2019-01-30T17:24:48.542Z,98639.30
2019-01-30T17:27:20.355Z,98639.89
2019-01-30T17:29:51.982Z,98649.02
2019-01-30T17:32:23.750Z,98655.98
2019-01-30T17:34:55.462Z,98656.52
2019-01-30T17:37:27.376Z,98664.79
2019-01-30T17:39:59.172Z,98671.27
2019-01-30T17:42:31.029Z,98678.23
2019-01-30T17:45:02.786Z,98675.33
2019-01-30T17:47:34.555Z,98677.57
2019-01-30T17:50:08.916Z,98680.24
2019-01-30T17:52:40.819Z,98683.28
2019-01-30T17:55:12.680Z,98691.10
2019-01-30T17:57:44.590Z,98692.84
2019-01-30T18:00:27.909Z,98695.03
2019-01-30T18:02:59.659Z,98698.42
2019-01-30T18:05:31.640Z,98706.92
2019-01-30T18:08:05.078Z,98711.92
2019-01-30T18:10:37.127Z,98716.03
2019-01-30T18:13:08.930Z,98721.52
2019-01-30T18:15:40.567Z,98717.10
2019-01-30T18:18:12.295Z,98720.49
2019-01-30T18:20:44.038Z,98722.95
2019-01-30T18:23:16.130Z,98723.80
2019-01-30T18:25:48.575Z,98729.25
2019-01-30T18:28:20.451Z,98727.91
2019-01-30T18:30:52.203Z,98736.43
2019-01-30T18:33:23.863Z,98737.63
2019-01-30T18:35:56.543Z,98731.47
2019-01-30T18:38:28.299Z,98733.96
2019-01-30T18:41:00.210Z,98739.06
2019-01-30T18:43:33.095Z,98735.52
2019-01-30T18:46:07.085Z,98736.33
2019-01-30T18:48:39.423Z,98740.58
2019-01-30T18:51:11.141Z,98742.67
2019-01-30T18:53:42.789Z,98739.09
2019-01-30T18:56:14.773Z,98743.33
2019-01-30T18:58:46.472Z,98741.01
2019-01-30T19:01:18.336Z,98738.36
2019-01-30T19:03:50.072Z,98740.82
2019-01-30T19:06:21.779Z,98752.05
2019-01-30T19:08:53.482Z,98750.25
2019-01-30T19:11:25.343Z,98750.70
2019-01-30T19:13:57.003Z,98748.90
2019-01-30T19:16:28.744Z,98753.16
2019-01-30T19:19:00.534Z,98756.59
2019-01-30T19:21:32.270Z,98759.64
2019-01-30T19:24:04.368Z,98759.19
2019-01-30T19:26:36.422Z,98761.73
2019-01-30T19:29:08.132Z,98759.59
2019-01-30T19:31:42.004Z,98759.19
2019-01-30T19:34:13.764Z,98755.20
2019-01-30T19:36:45.834Z,98761.95
2019-01-30T19:39:17.705Z,98770.58
2019-01-30T19:41:50.296Z,98765.39
2019-01-30T19:44:22.043Z,98763.64
2019-01-30T19:46:55.882Z,98764.48
2019-01-30T19:49:28.783Z,98771.69
2019-01-30T19:52:01.001Z,98757.37
2019-01-30T19:54:33.011Z,98763.27
2019-01-30T19:57:05.004Z,98763.61
2019-01-30T19:59:36.801Z,98757.49
2019-01-30T20:02:09.638Z,98761.78
2019-01-30T20:04:41.599Z,98755.83
2019-01-30T20:07:14.886Z,98759.33
2019-01-30T20:09:46.870Z,98762.42
2019-01-30T20:12:18.807Z,98758.98
2019-01-30T20:14:50.791Z,98762.47
2019-01-30T20:17:22.658Z,98759.42
2019-01-30T20:19:54.478Z,98756.44
2019-01-30T20:22:26.666Z,98759.56
2019-01-30T20:24:58.480Z,98749.19
2019-01-30T20:27:30.331Z,98753.08
2019-01-30T20:30:02.415Z,98748.79
2019-01-30T20:32:35.624Z,98753.08
2019-01-30T20:35:10.241Z,98753.92
2019-01-30T20:37:42.031Z,98756.97
2019-01-30T20:40:17.565Z,98748.84
2019-01-30T20:42:49.334Z,98753.58
2019-01-30T20:45:32.996Z,98754.48
2019-01-30T20:47:55.854Z,98757.08
2019-01-30T20:50:29.755Z,98754.96
2019-01-30T20:53:01.587Z,98765.84
2019-01-30T20:55:33.355Z,98765.49
2019-01-30T20:58:05.433Z,98762.13
2019-01-30T21:00:39.495Z,98759.14
2019-01-30T21:03:12.620Z,98760.03
2019-01-30T21:05:45.008Z,98752.31
2019-01-30T21:08:16.901Z,98751.02
2019-01-30T21:10:48.676Z,98756.33
2019-01-30T21:13:20.496Z,98755.48
2019-01-30T21:15:56.275Z,98759.91
2019-01-30T21:18:28.004Z,98758.71
2019-01-30T21:20:59.845Z,98751.52
2019-01-30T21:23:31.734Z,98755.00
2019-01-30T21:26:03.870Z,98749.87
2019-01-30T21:28:35.606Z,98753.70
2019-01-30T21:31:07.707Z,98755.05
2019-01-30T21:33:39.576Z,98748.26
2019-01-30T21:36:12.549Z,98749.10
2019-01-30T21:38:44.227Z,98746.52
2019-01-30T21:41:15.951Z,98748.26
2019-01-30T21:43:47.830Z,98751.34
2019-01-30T21:46:19.987Z,98750.95
2019-01-30T21:48:55.315Z,98744.91
2019-01-30T21:51:26.405Z,98745.45
2019-01-30T21:53:58.313Z,98746.80
2019-01-30T21:56:32.148Z,98753.27
2019-01-30T21:59:03.866Z,98751.21
2019-01-30T22:01:35.684Z,98743.98
2019-01-30T22:04:11.354Z,98746.62
2019-01-30T22:06:44.795Z,98749.74
2019-01-30T22:09:16.593Z,98752.88
2019-01-30T22:11:48.291Z,98746.09
2019-01-30T22:14:20.312Z,98747.52
2019-01-30T22:16:51.954Z,98752.04
2019-01-30T22:19:23.882Z,98752.61
2019-01-30T22:21:55.537Z,98753.16
2019-01-30T22:24:27.968Z,98748.05
2019-01-30T22:26:59.705Z,98752.44
2019-01-30T22:29:31.486Z,98744.70
2019-01-30T22:32:03.417Z,98748.72
2019-01-30T22:34:35.158Z,98749.22
2019-01-30T22:37:06.885Z,98751.04
2019-01-30T22:39:38.532Z,98741.66
2019-01-30T22:42:12.167Z,98747.38
2019-01-30T22:44:44.121Z,98747.55
2019-01-30T22:47:15.793Z,98750.27
2019-01-30T22:49:47.750Z,98752.19
2019-01-30T22:52:19.575Z,98749.31
2019-01-30T22:54:51.239Z,98743.41
2019-01-30T22:57:23.039Z,98744.52
2019-01-30T22:59:54.922Z,98749.53
2019-01-30T23:02:27.016Z,98739.48
2019-01-30T23:05:44.245Z,98748.30
2019-01-30T23:09:07.375Z,98751.90
2019-01-30T23:12:51.595Z,98744.66
2019-01-30T23:15:34.606Z,98737.26
2019-01-30T23:18:33.414Z,98736.93
2019-01-30T23:21:22.397Z,98732.65
2019-01-30T23:24:49.289Z,98730.67
2019-01-30T23:27:46.625Z,98733.62
2019-01-30T23:31:18.468Z,98730.73
2019-01-30T23:34:20.907Z,98731.01
2019-01-30T23:37:29.577Z,98722.96
2019-01-30T23:40:53.787Z,98722.56
2019-01-30T23:44:27.525Z,98723.31
2019-01-30T23:48:03.066Z,98713.76
2019-01-30T23:51:39.646Z,98717.57
2019-01-30T23:55:07.549Z,98716.36
2019-01-30T23:58:31.315Z,98721.16
